createdAt,value
2019-04-06T04:02:05.902Z,100886.26
2019-04-06T04:05:36.780Z,100894.62
2019-04-06T04:09:06.650Z,100897.61
2019-04-06T04:12:36.502Z,100898.54
2019-04-06T04:16:06.370Z,100891.69
2019-04-06T04:19:36.240Z,100891.82
2019-04-06T04:23:06.106Z,100885.27
2019-04-06T04:26:35.969Z,100898.1
2019-04-06T04:30:05.837Z,100898.48
2019-04-06T04:33:36.703Z,100895.71
2019-04-06T04:37:06.573Z,100901.79
2019-04-06T04:40:36.440Z,100903.76
2019-04-06T04:44:06.363Z,100906.92
2019-04-06T04:47:36.183Z,100903.39
2019-04-06T04:51:06.055Z,100908.35
2019-04-06T04:54:35.970Z,100910.89
2019-04-06T04:58:05.817Z,100911.45
2019-04-06T05:01:35.689Z,100916.07
2019-04-06T05:05:03.563Z,100912.37
2019-04-06T05:08:33.420Z,100913.32
2019-04-06T05:12:03.294Z,100912.43
2019-04-06T05:15:33.225Z,100917.09
2019-04-06T05:19:03.257Z,100919.2
2019-04-06T05:22:32.919Z,100921.82
2019-04-06T05:26:02.789Z,100928
2019-04-06T05:29:33.693Z,100930.37
2019-04-06T05:33:03.497Z,100935.03
2019-04-06T05:36:33.365Z,100933.68
2019-04-06T05:40:03.229Z,100942.25
2019-04-06T05:43:33.124Z,100938.21
2019-04-06T05:47:03.037Z,100940.51
2019-04-06T05:50:32.807Z,100943.21
2019-04-06T05:54:02.650Z,100948.28
2019-04-06T06:02:29.347Z,100952.92
2019-04-06T06:06:00.243Z,100952.71
2019-04-06T06:14:10.146Z,100960.25
2019-04-06T06:17:39.997Z,100961.28
2019-04-06T06:21:09.793Z,100965.71
2019-04-06T06:24:39.824Z,100971.11
2019-04-06T06:28:14.803Z,100972.15
2019-04-06T06:31:43.425Z,100975
2019-04-06T06:35:13.256Z,100977.03
2019-04-06T06:38:43.071Z,100980.84
2019-04-06T06:42:14.909Z,100979.92
2019-04-06T06:45:44.713Z,100988.43
2019-04-06T06:49:15.469Z,100984.32
2019-04-06T06:52:45.769Z,100974.54
2019-04-06T06:56:15.607Z,100978.7
2019-04-06T06:59:45.449Z,100978.95
2019-04-06T07:03:15.270Z,100980.31
2019-04-06T07:06:45.110Z,100983.73
2019-04-06T07:10:15.086Z,100987.91
2019-04-06T07:13:45.000Z,100990.03
2019-04-06T07:17:14.806Z,100989.18
2019-04-06T07:20:44.770Z,100991.21
2019-04-06T07:24:14.499Z,100996.31
2019-04-06T07:27:44.342Z,100995.62
2019-04-06T07:31:14.576Z,101000.06
2019-04-06T07:34:45.081Z,101004.09
2019-04-06T07:38:14.918Z,101006.21
2019-04-06T07:41:44.753Z,101005.42
2019-04-06T07:45:14.654Z,101007.01
2019-04-06T07:48:44.495Z,101012.76
2019-04-06T07:52:14.336Z,101005.09
2019-04-06T07:55:44.178Z,101003.57
2019-04-06T07:59:14.076Z,101004.98
2019-04-06T08:02:44.906Z,101002.42
2019-04-06T08:06:14.642Z,101002.64
2019-04-06T08:09:44.498Z,101003.82
2019-04-06T08:13:14.319Z,100992.67
2019-04-06T08:16:44.139Z,100995.42
2019-04-06T08:20:15.003Z,100992.84
2019-04-06T08:23:45.013Z,100990.48
2019-04-06T08:27:14.684Z,100995.65
2019-04-06T08:30:47.108Z,100997.21
2019-04-06T08:34:16.370Z,100991.55
2019-04-06T08:37:46.253Z,100993.2
2019-04-06T08:41:16.176Z,100994.29
2019-04-06T08:44:45.955Z,100992.46
2019-04-06T08:48:15.941Z,100991.67
2019-04-06T08:51:45.880Z,100988.45
2019-04-06T08:55:15.751Z,100985.89
2019-04-06T08:58:45.710Z,100983.47
2019-04-06T09:02:15.467Z,100982.25
2019-04-06T09:05:45.520Z,100983.07
2019-04-06T09:09:16.188Z,100978.64
2019-04-06T09:12:49.601Z,100979.04
2019-04-06T09:16:20.404Z,100981.02
2019-04-06T09:19:50.323Z,100977.47
2019-04-06T09:23:20.345Z,100975.19
2019-04-06T09:26:50.268Z,100976.03
2019-04-06T09:30:20.284Z,100972
2019-04-06T09:33:49.940Z,100970.82
2019-04-06T09:37:22.806Z,100970.82
2019-04-06T09:40:52.985Z,100973.45
2019-04-06T09:44:22.842Z,100975.55
2019-04-06T09:47:52.576Z,100967.1
2019-04-06T09:51:22.466Z,100965.23
2019-04-06T09:54:52.310Z,100958.68
2019-04-06T09:58:22.211Z,100962.6
2019-04-06T10:01:52.035Z,100961.18
2019-04-06T10:05:21.898Z,100961.39
2019-04-06T10:08:53.056Z,100953.82
2019-04-06T10:12:22.725Z,100950.76
2019-04-06T10:15:52.593Z,100950.93
2019-04-06T10:19:22.490Z,100950.51
2019-04-06T10:22:52.355Z,100947.53
2019-04-06T10:26:22.297Z,100954.2
2019-04-06T10:29:52.254Z,100957.56
2019-04-06T10:33:22.303Z,100959.18
2019-04-06T10:36:52.276Z,100959.71
2019-04-06T10:40:22.201Z,100966.5
2019-04-06T10:43:51.964Z,100970.85
2019-04-06T10:47:21.804Z,100973.67
2019-04-06T10:50:52.867Z,100972.62
2019-04-06T10:54:22.511Z,100968.89
2019-04-06T10:57:52.731Z,100973.28
2019-04-06T11:01:22.995Z,100973.71
2019-04-06T11:04:52.810Z,100979.84
2019-04-06T11:08:22.770Z,100979.71
2019-04-06T11:11:52.926Z,100980.84
2019-04-06T11:15:25.402Z,100987.94
2019-04-06T11:18:55.736Z,100984.25
2019-04-06T11:22:26.766Z,100981.78
2019-04-06T11:25:56.661Z,100983.9
2019-04-06T11:29:26.490Z,100984.89
2019-04-06T11:32:56.408Z,100983.02
2019-04-06T11:36:26.603Z,100983.17
2019-04-06T11:39:57.425Z,100979.1
2019-04-06T11:43:27.564Z,100985.45
2019-04-06T11:46:57.448Z,100977.39
2019-04-06T11:50:27.467Z,100977.25
2019-04-06T11:53:57.687Z,100979.67
2019-04-06T11:57:27.245Z,100986.39
2019-04-06T12:00:57.128Z,100987.48
2019-04-06T12:04:28.163Z,100990.29
2019-04-06T12:07:57.798Z,100992.31
2019-04-06T12:11:27.672Z,100991.46
2019-04-06T12:14:58.441Z,100991.97
2019-04-06T12:18:28.315Z,100983.85
2019-04-06T12:21:58.278Z,100985.1
2019-04-06T12:25:28.046Z,100983.76
2019-04-06T12:28:57.900Z,100981.29
2019-04-06T12:32:27.965Z,100986.68
2019-04-06T12:35:58.050Z,100987.07
2019-04-06T12:39:27.445Z,100982.95
2019-04-06T12:42:57.379Z,100979.59
2019-04-06T12:46:27.154Z,100980.23
2019-04-06T12:49:57.237Z,100976.75
2019-04-06T12:53:27.180Z,100977.84
2019-04-06T12:56:56.859Z,100973.75
2019-04-06T13:00:26.698Z,100976.56
2019-04-06T13:03:56.568Z,100975.82
2019-04-06T13:07:26.472Z,100971.67
2019-04-06T13:10:56.472Z,100974.86
2019-04-06T13:14:26.328Z,100973.51
2019-04-06T13:17:56.178Z,100968.1
2019-04-06T13:21:26.422Z,100960.9
2019-04-06T13:24:55.887Z,100957.34
2019-04-06T13:28:25.878Z,100960.46
2019-04-06T13:32:00.118Z,100968.46
2019-04-06T13:35:31.117Z,100962.54
2019-04-06T13:39:01.044Z,100948.17
2019-04-06T13:42:31.095Z,100965.2
2019-04-06T13:46:01.365Z,100962.82
2019-04-06T13:49:31.193Z,100954.93
2019-04-06T13:53:02.038Z,100951.11
2019-04-06T13:56:31.902Z,100962.59
2019-04-06T14:00:01.783Z,100956.65
2019-04-06T14:03:31.763Z,100962.51
2019-04-06T14:07:02.662Z,100957.98
2019-04-06T14:10:32.529Z,100958.63
2019-04-06T14:14:02.429Z,100957.53
2019-04-06T14:17:32.627Z,100960.78
2019-04-06T14:21:03.352Z,100960.71
2019-04-06T14:24:33.006Z,100961.71
2019-04-06T14:28:03.248Z,100943.4
2019-04-06T14:31:33.756Z,100941.68
2019-04-06T14:35:03.570Z,100955.66
2019-04-06T14:38:33.406Z,100948.45
2019-04-06T14:42:03.255Z,100951.17
2019-04-06T14:45:33.152Z,100942.25
2019-04-06T14:49:13.789Z,100951.61
2019-04-06T14:52:38.702Z,100954.35
2019-04-06T14:56:08.898Z,100945.78
2019-04-06T14:59:38.380Z,100956.46
2019-04-06T15:03:08.298Z,100958.25
2019-04-06T15:06:38.156Z,100957.78
2019-04-06T15:10:07.988Z,100953.76
2019-04-06T15:13:37.822Z,100955.31
2019-04-06T15:17:08.663Z,100952.12
2019-04-06T15:20:38.469Z,100952.22
2019-04-06T15:24:08.306Z,100946.69
2019-04-06T15:27:38.205Z,100956.92
2019-04-06T15:31:08.024Z,100947.23
2019-04-06T15:34:38.130Z,100951.56
2019-04-06T15:38:08.064Z,100947.82
2019-04-06T15:41:37.629Z,100945.6
2019-04-06T15:45:08.398Z,100942.42
2019-04-06T15:48:41.251Z,100947.15
2019-04-06T15:52:15.496Z,100945.46
2019-04-06T15:55:45.281Z,100949.21
2019-04-06T15:59:14.630Z,100944.53
2019-04-06T16:02:18.277Z,100943.07
2019-04-06T16:05:48.091Z,100938.26
2019-04-06T16:09:19.039Z,100942.89
2019-04-06T16:12:48.762Z,100941.23
2019-04-06T16:16:18.649Z,100943.34
2019-04-06T16:19:48.505Z,100952.2
2019-04-06T16:23:18.489Z,100950.19
2019-04-06T16:26:48.378Z,100947.57
2019-04-06T16:30:18.527Z,100950.14
2019-04-06T16:33:48.094Z,100950.25
2019-04-06T16:37:17.945Z,100949.28
2019-04-06T16:40:47.967Z,100948.65
2019-04-06T16:44:17.909Z,100950.81
2019-04-06T16:47:47.906Z,100952.6
2019-04-06T16:51:17.954Z,100949.81
2019-04-06T16:54:47.957Z,100952.12
2019-04-06T16:58:17.911Z,100956.92
2019-04-06T17:01:48.190Z,100957.45
2019-04-06T17:05:18.516Z,100957.75
2019-04-06T17:08:48.621Z,100960.14
2019-04-06T17:12:18.520Z,100961.48
2019-04-06T17:15:48.488Z,100962.98
2019-04-06T17:19:18.345Z,100962.33
2019-04-06T17:22:48.284Z,100964.79
2019-04-06T17:26:18.556Z,100962.71
2019-04-06T17:29:50.440Z,100966.42
2019-04-06T17:33:20.056Z,100962.25
2019-04-06T17:36:50.105Z,100960
2019-04-06T17:40:20.113Z,100956.47
2019-04-06T17:43:50.701Z,100951.71
2019-04-06T17:47:20.237Z,100956.4
2019-04-06T17:50:50.286Z,100952.64
2019-04-06T17:54:20.271Z,100956.46
2019-04-06T17:57:50.162Z,100958.5
2019-04-06T18:01:20.989Z,100963.98
2019-04-06T18:04:50.095Z,100967.11
2019-04-06T18:08:20.190Z,100967
2019-04-06T18:11:49.847Z,100973.02
2019-04-06T18:15:20.098Z,100976.86
2019-04-06T18:18:49.883Z,100969.81
2019-04-06T18:22:19.548Z,100968.93
2019-04-06T18:25:49.683Z,100979.89
2019-04-06T18:29:19.826Z,100981.35
2019-04-06T18:32:58.716Z,100986.46
2019-04-06T18:36:24.444Z,100982.85
2019-04-06T18:39:54.687Z,100984.1
2019-04-06T18:43:24.130Z,100988.64
2019-04-06T18:46:54.069Z,100987.48
2019-04-06T18:50:34.090Z,100989.36
2019-04-06T18:53:58.985Z,100986.93
2019-04-06T18:57:28.809Z,100987.01
2019-04-06T19:00:59.557Z,100985.2
2019-04-06T19:04:29.390Z,100980.55
2019-04-06T19:07:59.323Z,100984.28
2019-04-06T19:11:29.166Z,100988.21
2019-04-06T19:14:59.142Z,100984.85
2019-04-06T19:18:30.749Z,100983.1
2019-04-06T19:22:01.341Z,100984.57
2019-04-06T19:25:30.862Z,100984.62
2019-04-06T19:29:00.791Z,100985.05
2019-04-06T19:32:30.721Z,100986.54
2019-04-06T19:36:00.582Z,100985.04
2019-04-06T19:39:31.843Z,100977.12
2019-04-06T19:43:02.168Z,100983.35
2019-04-06T19:46:33.963Z,100982.53
2019-04-06T19:50:04.848Z,100984.73
2019-04-06T19:53:34.605Z,100977.23
2019-04-06T19:57:05.495Z,100977.02
2019-04-06T20:00:35.558Z,100982.48
2019-04-06T20:04:05.877Z,100982.4
2019-04-06T20:07:40.950Z,100979.45
2019-04-06T20:11:11.074Z,100976.62
2019-04-06T20:14:42.006Z,100969.48
2019-04-06T20:18:12.683Z,100967.17
2019-04-06T20:21:42.829Z,100964.25
2019-04-06T20:25:13.685Z,100967.04
2019-04-06T20:28:43.326Z,100963.46
2019-04-06T20:32:14.453Z,100961.5
2019-04-06T20:35:44.669Z,100955.1
2019-04-06T20:39:15.264Z,100955.48
2019-04-06T20:42:46.010Z,100956.65
2019-04-06T20:46:20.026Z,100953.14
2019-04-06T20:49:50.567Z,100945.81
2019-04-06T20:53:21.064Z,100948.78
2019-04-06T20:56:57.000Z,100949.2
2019-04-06T21:00:25.745Z,100946.84
2019-04-06T21:04:02.065Z,100940.12
2019-04-06T21:07:29.900Z,100938.39
2019-04-06T21:11:01.183Z,100940.02
2019-04-06T21:14:31.655Z,100939.25
2019-04-06T21:18:01.655Z,100940.15
2019-04-06T21:21:31.639Z,100938.7
2019-04-06T21:25:01.545Z,100938.78
2019-04-06T21:28:31.968Z,100941.09
2019-04-06T21:32:02.790Z,100938.68
2019-04-06T21:35:32.495Z,100938.44
2019-04-06T21:39:03.858Z,100935.92
2019-04-06T21:42:33.427Z,100931.75
2019-04-06T21:46:03.337Z,100927.43
2019-04-06T21:49:33.801Z,100929.73
2019-04-06T21:53:03.786Z,100925.09
2019-04-06T21:56:34.193Z,100930.23
2019-04-06T22:00:04.248Z,100923.03
